Terminal Aerodrome Forecast
Issued by NWS Des Moines, IA

Home | Current Version | Previous Version | Text Only | Print | Product List | Glossary On
Versions: 1 2 3 4 5 6 7 8 9 10 11 12 13 14 15 16 17 18 19 20 21 22 23 24 25 26 27 28 29 30 31 32 33 34 35 36 37 38
581
FTUS43 KDMX 281438 AAA
TAFALO
TAF AMD
KALO 281438Z 2815/2912 16013KT P6SM VCTS SCT050CB BKN090
     FM282000 19015G22KT P6SM VCTS BKN040CB
     FM282300 21012G21KT P6SM BKN080
     FM290500 21007KT P6SM SCT150=

USA.gov is the U.S. government's official web portal to all federal, state and local government web resources and services.